Terminal Aerodrome Forecast
Issued by NWS

Home | Current Version | Previous Version | Graphics & Text | Print | Product List | Glossary On
Versions: 1 2 3 4 5 6 7 8 9 10 11 12 13 14 15 16 17 18
255
FTUS43 KLSX 061128
TAFSUS
TAF
KSUS 061128Z 0612/0712 VRB03KT P6SM SCT080
     FM061500 23006KT P6SM SCT080=

USA.gov is the U.S. government's official web portal to all federal, state and local government web resources and services.